Time;durP1;ratioP1;P1;durP2;ratioP2;P2;SDS_P1;SDS_P2;PMS_P1;PMS_P2;Temp;Humidity;BMP_temperature;BMP_pressure;BME280_temperature;BME280_humidity;BME280_pressure;Samples;Min_cycle;Max_cycle;Signal;HPM_P1;HPM_P2
2022/03/22 00:02:17;;;;;;;26.77;13.68;;;;;;;;;;5086306;28;20074;-60
2022/03/22 00:04:42;;;;;;;23.02;12.52;;;;;;;;;;5084359;28;20029;-59
2022/03/22 00:07:08;;;;;;;27.90;12.50;;;;;;;;;;5088761;28;20019;-58
2022/03/22 00:09:34;;;;;;;29.63;13.18;;;;;;;;;;5081566;28;20540;-59
2022/03/22 00:12:00;;;;;;;28.60;13.52;;;;;;;;;;5084066;28;20077;-59
2022/03/22 00:14:25;;;;;;;28.70;14.07;;;;;;;;;;5075806;28;20037;-59
2022/03/22 00:16:53;;;;;;;27.42;13.18;;;;;;;;;;5090128;28;20031;-60
2022/03/22 00:19:19;;;;;;;29.85;12.85;;;;;;;;;;5079281;28;20395;-59
2022/03/22 00:21:44;;;;;;;27.65;13.18;;;;;;;;;;5076642;28;20024;-59
2022/03/22 00:24:11;;;;;;;27.02;13.55;;;;;;;;;;5076968;28;20465;-59
2022/03/22 00:26:36;;;;;;;30.75;14.02;;;;;;;;;;5072520;28;20033;-58
2022/03/22 00:29:03;;;;;;;29.98;13.63;;;;;;;;;;5072299;28;20063;-59
2022/03/22 00:31:31;;;;;;;26.23;12.93;;;;;;;;;;5077878;28;20035;-59
2022/03/22 00:33:57;;;;;;;30.10;13.75;;;;;;;;;;5101512;28;20471;-60
2022/03/22 00:36:23;;;;;;;27.35;13.55;;;;;;;;;;5086705;28;20032;-60
2022/03/22 00:38:49;;;;;;;31.80;15.13;;;;;;;;;;5084937;28;20471;-58
2022/03/22 00:41:16;;;;;;;33.15;16.40;;;;;;;;;;5080434;28;20016;-59
2022/03/22 00:43:43;;;;;;;31.45;15.98;;;;;;;;;;5094917;28;20032;-59
2022/03/22 00:46:09;;;;;;;31.67;16.50;;;;;;;;;;5086303;28;20055;-59
2022/03/22 00:48:34;;;;;;;31.67;15.57;;;;;;;;;;5079330;28;20060;-59
2022/03/22 00:51:00;;;;;;;32.22;14.80;;;;;;;;;;5085055;28;20039;-60
2022/03/22 00:53:26;;;;;;;32.67;15.32;;;;;;;;;;5081738;28;20222;-59
2022/03/22 00:55:52;;;;;;;29.08;14.43;;;;;;;;;;5086674;28;20028;-59
2022/03/22 00:58:18;;;;;;;28.33;13.38;;;;;;;;;;5083442;28;20042;-59
2022/03/22 01:00:43;;;;;;;34.13;14.65;;;;;;;;;;5082613;28;20032;-59
2022/03/22 01:03:09;;;;;;;30.48;15.52;;;;;;;;;;5084771;28;20035;-59
2022/03/22 01:05:35;;;;;;;29.00;14.45;;;;;;;;;;5084833;28;20561;-58
2022/03/22 01:08:05;;;;;;;28.95;13.63;;;;;;;;;;5086755;28;20118;-58
2022/03/22 01:10:32;;;;;;;29.23;14.07;;;;;;;;;;5085928;28;20032;-59
2022/03/22 01:12:58;;;;;;;30.15;13.43;;;;;;;;;;5080764;28;20028;-59
2022/03/22 01:15:32;;;;;;;27.70;14.00;;;;;;;;;;5074728;28;20460;-60
2022/03/22 01:17:59;;;;;;;33.63;14.50;;;;;;;;;;5072922;28;20028;-58
2022/03/22 01:20:26;;;;;;;30.50;13.80;;;;;;;;;;5079323;28;20352;-59
2022/03/22 01:22:52;;;;;;;30.17;14.05;;;;;;;;;;5081970;28;20024;-58
2022/03/22 01:25:20;;;;;;;27.65;13.27;;;;;;;;;;5082311;28;20024;-59
2022/03/22 01:27:48;;;;;;;26.25;12.50;;;;;;;;;;5076764;28;20028;-58
2022/03/22 01:30:15;;;;;;;24.85;12.85;;;;;;;;;;5079978;28;20027;-59
2022/03/22 01:32:42;;;;;;;28.73;13.05;;;;;;;;;;5087247;28;20502;-59
2022/03/22 01:35:11;;;;;;;25.45;12.90;;;;;;;;;;5082240;28;20032;-59
2022/03/22 01:37:38;;;;;;;26.30;12.98;;;;;;;;;;5085910;28;20475;-58
2022/03/22 01:40:06;;;;;;;29.98;14.30;;;;;;;;;;5090924;28;20114;-60
2022/03/22 01:42:31;;;;;;;27.20;12.68;;;;;;;;;;5085150;28;20036;-59
2022/03/22 01:44:57;;;;;;;26.77;13.43;;;;;;;;;;5087382;28;20039;-59
2022/03/22 01:47:23;;;;;;;26.00;13.05;;;;;;;;;;5084856;28;20108;-58
2022/03/22 01:49:52;;;;;;;27.15;13.23;;;;;;;;;;5086587;28;20031;-59
2022/03/22 01:52:23;;;;;;;28.63;13.25;;;;;;;;;;5086056;28;20016;-58
2022/03/22 01:54:51;;;;;;;29.67;13.95;;;;;;;;;;5084864;28;20127;-58
2022/03/22 01:57:21;;;;;;;28.00;13.63;;;;;;;;;;5090727;28;20115;-58
2022/03/22 01:59:47;;;;;;;25.02;12.80;;;;;;;;;;5082359;28;20024;-58
2022/03/22 02:07:45;;;;;;;26.00;12.98;;;;;;;;;;5087421;28;20355;-58
2022/03/22 02:10:11;;;;;;;28.52;12.80;;;;;;;;;;5086408;28;20059;-60
2022/03/22 02:12:36;;;;;;;25.98;12.35;;;;;;;;;;5083099;28;20115;-59
2022/03/22 02:15:03;;;;;;;25.83;13.50;;;;;;;;;;5085787;28;20542;-59
2022/03/22 02:17:28;;;;;;;27.23;12.70;;;;;;;;;;5075708;28;20020;-58
2022/03/22 02:19:54;;;;;;;30.45;12.52;;;;;;;;;;5078980;28;20028;-58
2022/03/22 02:22:28;;;;;;;26.75;13.10;;;;;;;;;;5082762;28;20056;-59
2022/03/22 02:24:54;;;;;;;27.48;13.15;;;;;;;;;;5087501;28;20043;-60
2022/03/22 02:27:21;;;;;;;29.05;13.00;;;;;;;;;;5083936;28;20020;-58
2022/03/22 02:29:46;;;;;;;27.58;13.80;;;;;;;;;;5076533;28;20028;-58
2022/03/22 02:32:12;;;;;;;26.52;12.70;;;;;;;;;;5085673;28;20032;-59
2022/03/22 02:34:39;;;;;;;31.27;15.75;;;;;;;;;;5092050;28;20482;-59
2022/03/22 02:37:05;;;;;;;26.95;13.30;;;;;;;;;;5085569;28;20020;-59
2022/03/22 02:39:32;;;;;;;27.05;13.10;;;;;;;;;;5080288;28;20025;-58
2022/03/22 02:41:58;;;;;;;26.15;12.52;;;;;;;;;;5084285;28;20435;-59
2022/03/22 02:44:23;;;;;;;28.80;13.60;;;;;;;;;;5086664;28;20058;-59
2022/03/22 02:46:49;;;;;;;29.58;13.35;;;;;;;;;;5086321;28;20036;-58
2022/03/22 02:49:14;;;;;;;27.13;12.77;;;;;;;;;;5085322;28;20024;-59
2022/03/22 02:51:40;;;;;;;27.17;12.48;;;;;;;;;;5079802;28;20039;-59
2022/03/22 02:54:06;;;;;;;28.17;12.60;;;;;;;;;;5083568;28;20482;-59
2022/03/22 02:56:32;;;;;;;29.83;12.50;;;;;;;;;;5085287;28;20020;-60
2022/03/22 02:58:58;;;;;;;28.85;13.57;;;;;;;;;;5083797;28;20028;-59
2022/03/22 03:01:24;;;;;;;26.08;12.75;;;;;;;;;;5078523;28;20468;-58
2022/03/22 03:03:49;;;;;;;27.25;13.13;;;;;;;;;;5080635;28;20028;-58
2022/03/22 03:06:15;;;;;;;24.85;11.73;;;;;;;;;;5084093;28;20077;-58
2022/03/22 03:08:43;;;;;;;26.77;12.55;;;;;;;;;;5089365;28;20028;-59
2022/03/22 03:11:09;;;;;;;23.33;11.85;;;;;;;;;;5084483;28;20032;-58
2022/03/22 03:16:18;;;;;;;26.70;12.30;;;;;;;;;;5079276;28;20046;-58
2022/03/22 03:18:44;;;;;;;26.70;11.90;;;;;;;;;;5075105;28;20123;-58
2022/03/22 03:21:09;;;;;;;33.17;14.05;;;;;;;;;;5076602;28;20226;-58
2022/03/22 03:23:35;;;;;;;27.10;13.65;;;;;;;;;;5078064;28;20467;-58
2022/03/22 03:26:00;;;;;;;27.27;12.85;;;;;;;;;;5080975;28;20101;-58
2022/03/22 03:28:25;;;;;;;28.00;12.25;;;;;;;;;;5080520;28;20020;-58
2022/03/22 03:30:51;;;;;;;26.15;12.38;;;;;;;;;;5072370;28;20033;-59
2022/03/22 03:33:16;;;;;;;27.83;12.98;;;;;;;;;;5078461;28;20024;-59
2022/03/22 03:35:42;;;;;;;22.98;11.75;;;;;;;;;;5083641;28;20043;-59
2022/03/22 03:38:07;;;;;;;26.70;12.55;;;;;;;;;;5081971;28;20034;-59
2022/03/22 03:43:17;;;;;;;28.23;12.73;;;;;;;;;;5084612;28;20035;-58
2022/03/22 03:48:26;;;;;;;24.58;11.93;;;;;;;;;;5076137;28;20073;-58
2022/03/22 03:50:52;;;;;;;28.17;12.90;;;;;;;;;;5075776;28;20020;-59
2022/03/22 03:53:17;;;;;;;26.38;11.95;;;;;;;;;;5083216;28;20027;-58
2022/03/22 03:55:43;;;;;;;27.38;12.60;;;;;;;;;;5082521;28;20519;-58
2022/03/22 03:58:08;;;;;;;25.83;12.27;;;;;;;;;;5075587;28;20028;-59
2022/03/22 04:00:33;;;;;;;26.27;11.93;;;;;;;;;;5079457;28;20031;-58
2022/03/22 04:02:59;;;;;;;26.90;13.05;;;;;;;;;;5081196;28;20376;-59
2022/03/22 04:05:25;;;;;;;26.27;12.55;;;;;;;;;;5085595;28;20124;-58
2022/03/22 04:07:50;;;;;;;28.92;13.30;;;;;;;;;;5082287;28;20039;-59
2022/03/22 04:10:16;;;;;;;26.65;12.55;;;;;;;;;;5078066;28;20036;-58
2022/03/22 04:12:42;;;;;;;29.65;13.02;;;;;;;;;;5082314;28;20019;-58
2022/03/22 04:15:08;;;;;;;29.23;12.85;;;;;;;;;;5078895;28;20036;-58
2022/03/22 04:17:34;;;;;;;27.90;12.52;;;;;;;;;;5085956;28;20028;-58
2022/03/22 04:20:00;;;;;;;31.15;14.15;;;;;;;;;;5076784;28;20127;-59
2022/03/22 04:22:26;;;;;;;28.05;13.63;;;;;;;;;;5076242;28;20043;-59
2022/03/22 04:24:51;;;;;;;27.60;13.70;;;;;;;;;;5077366;28;20073;-59
2022/03/22 04:32:44;;;;;;;29.55;12.82;;;;;;;;;;5080680;28;20726;-59
2022/03/22 04:35:18;;;;;;;27.08;12.07;;;;;;;;;;5080944;28;20032;-59
2022/03/22 04:37:45;;;;;;;31.10;13.15;;;;;;;;;;5082764;28;20032;-59
2022/03/22 04:40:10;;;;;;;25.27;12.25;;;;;;;;;;5075872;28;20060;-59
2022/03/22 04:42:37;;;;;;;29.17;13.48;;;;;;;;;;5082007;28;20048;-58
2022/03/22 04:45:06;;;;;;;25.15;12.20;;;;;;;;;;5085992;28;20023;-58
2022/03/22 04:47:32;;;;;;;27.52;12.63;;;;;;;;;;5080719;28;20029;-58
2022/03/22 04:49:58;;;;;;;25.92;13.07;;;;;;;;;;5080338;28;20094;-60
2022/03/22 04:57:52;;;;;;;28.92;13.82;;;;;;;;;;5079086;28;20039;-59
2022/03/22 05:00:18;;;;;;;34.83;15.77;;;;;;;;;;5081590;28;20016;-59
2022/03/22 05:02:44;;;;;;;29.08;13.02;;;;;;;;;;5077992;28;20231;-59
2022/03/22 05:05:09;;;;;;;24.33;12.02;;;;;;;;;;5076209;28;20043;-58
2022/03/22 05:07:35;;;;;;;24.35;12.43;;;;;;;;;;5079246;28;20056;-58
2022/03/22 05:10:00;;;;;;;25.50;13.15;;;;;;;;;;5078352;28;20479;-58
2022/03/22 05:12:26;;;;;;;31.38;12.95;;;;;;;;;;5077107;28;20148;-58
2022/03/22 05:14:51;;;;;;;34.20;15.25;;;;;;;;;;5081617;28;20540;-58
2022/03/22 05:17:23;;;;;;;32.42;14.45;;;;;;;;;;5077560;28;20032;-57
2022/03/22 05:19:50;;;;;;;27.33;13.05;;;;;;;;;;5077728;28;20426;-58
2022/03/22 05:22:19;;;;;;;28.58;13.40;;;;;;;;;;5070976;28;20029;-58
2022/03/22 05:24:47;;;;;;;31.52;14.02;;;;;;;;;;5081190;28;20042;-59
2022/03/22 05:27:17;;;;;;;22.80;11.82;;;;;;;;;;5076735;28;20028;-59
2022/03/22 05:29:43;;;;;;;23.38;11.77;;;;;;;;;;5081030;28;20043;-58
2022/03/22 05:32:09;;;;;;;26.45;12.60;;;;;;;;;;5083507;28;20028;-58
2022/03/22 05:34:34;;;;;;;28.98;13.60;;;;;;;;;;5074878;28;20403;-58
2022/03/22 05:37:00;;;;;;;25.27;12.07;;;;;;;;;;5078982;28;20035;-58
2022/03/22 05:39:26;;;;;;;24.80;12.60;;;;;;;;;;5075849;28;20031;-58
2022/03/22 05:41:51;;;;;;;25.20;13.50;;;;;;;;;;5075205;28;20063;-59
2022/03/22 05:44:17;;;;;;;27.70;14.32;;;;;;;;;;5071990;28;20063;-59
2022/03/22 05:46:42;;;;;;;27.95;13.63;;;;;;;;;;5081289;28;20471;-58
2022/03/22 05:49:13;;;;;;;28.60;13.68;;;;;;;;;;5077800;28;20040;-58
2022/03/22 05:51:39;;;;;;;27.88;13.23;;;;;;;;;;5081806;28;20040;-58
2022/03/22 05:54:04;;;;;;;28.50;12.68;;;;;;;;;;5082470;28;20167;-58
2022/03/22 05:56:30;;;;;;;28.33;12.65;;;;;;;;;;5079547;28;20038;-59
2022/03/22 05:58:58;;;;;;;29.55;13.73;;;;;;;;;;5080293;28;20471;-58
2022/03/22 06:01:24;;;;;;;28.98;13.07;;;;;;;;;;5076347;28;20034;-58
2022/03/22 06:03:50;;;;;;;29.05;13.65;;;;;;;;;;5078468;28;20024;-59
2022/03/22 06:06:16;;;;;;;31.77;13.85;;;;;;;;;;5073425;28;20032;-58
2022/03/22 06:08:41;;;;;;;29.02;12.73;;;;;;;;;;5076178;28;20035;-59
2022/03/22 06:11:07;;;;;;;25.15;12.73;;;;;;;;;;5076933;28;20029;-60
2022/03/22 06:13:32;;;;;;;25.67;13.57;;;;;;;;;;5079352;28;20027;-60
2022/03/22 06:15:58;;;;;;;30.48;13.77;;;;;;;;;;5080735;28;20024;-60
2022/03/22 06:18:23;;;;;;;32.42;14.80;;;;;;;;;;5079677;28;20023;-60
2022/03/22 06:20:49;;;;;;;30.08;13.55;;;;;;;;;;5076724;28;20077;-59
2022/03/22 06:23:15;;;;;;;27.27;12.48;;;;;;;;;;5083719;28;20297;-60
2022/03/22 06:25:42;;;;;;;39.97;17.67;;;;;;;;;;5081930;28;20082;-59
2022/03/22 06:28:09;;;;;;;35.63;16.83;;;;;;;;;;5080318;28;20017;-60
2022/03/22 06:30:35;;;;;;;38.72;15.63;;;;;;;;;;5083298;28;20069;-61
2022/03/22 06:33:08;;;;;;;29.60;13.02;;;;;;;;;;5073603;28;20016;-60
2022/03/22 06:35:34;;;;;;;30.38;13.82;;;;;;;;;;5086864;28;20387;-60
2022/03/22 06:38:01;;;;;;;26.67;13.30;;;;;;;;;;5081702;28;20016;-60
2022/03/22 06:40:28;;;;;;;36.17;16.48;;;;;;;;;;5083547;28;20024;-60
2022/03/22 06:42:54;;;;;;;29.45;15.55;;;;;;;;;;5088863;28;20032;-60
2022/03/22 06:45:20;;;;;;;33.13;15.82;;;;;;;;;;5085295;28;20016;-61
2022/03/22 06:47:46;;;;;;;29.65;14.35;;;;;;;;;;5075376;28;20094;-61
2022/03/22 06:50:14;;;;;;;38.50;14.63;;;;;;;;;;5080574;28;20115;-59
2022/03/22 06:52:39;;;;;;;30.30;14.80;;;;;;;;;;5077514;28;20028;-60
2022/03/22 06:55:06;;;;;;;31.58;14.88;;;;;;;;;;5082625;28;20404;-61
2022/03/22 06:57:32;;;;;;;35.33;17.05;;;;;;;;;;5075773;28;20024;-60
2022/03/22 07:00:00;;;;;;;32.33;15.73;;;;;;;;;;5084502;28;20475;-59
2022/03/22 07:02:25;;;;;;;30.25;16.50;;;;;;;;;;5085894;28;20067;-59
2022/03/22 07:04:51;;;;;;;31.63;14.35;;;;;;;;;;5077088;28;20091;-58
2022/03/22 07:07:17;;;;;;;39.10;17.48;;;;;;;;;;5082781;28;20032;-60
2022/03/22 07:09:43;;;;;;;35.65;17.40;;;;;;;;;;5076863;28;20637;-60
2022/03/22 07:12:10;;;;;;;41.15;19.25;;;;;;;;;;5076824;28;20033;-60
2022/03/22 07:14:38;;;;;;;38.30;18.00;;;;;;;;;;5079357;28;20161;-60
2022/03/22 07:17:05;;;;;;;43.43;18.80;;;;;;;;;;5075815;28;20125;-60
2022/03/22 07:19:30;;;;;;;41.25;18.98;;;;;;;;;;5075148;28;20035;-60
2022/03/22 07:21:57;;;;;;;38.45;18.60;;;;;;;;;;5074370;28;20078;-60
2022/03/22 07:24:23;;;;;;;40.88;19.35;;;;;;;;;;5076489;28;20555;-60
2022/03/22 07:26:48;;;;;;;41.40;19.83;;;;;;;;;;5083579;28;20024;-59
2022/03/22 07:29:14;;;;;;;48.25;21.42;;;;;;;;;;5087037;28;20032;-60
2022/03/22 07:31:40;;;;;;;46.50;22.17;;;;;;;;;;5085254;28;20047;-59
2022/03/22 07:34:08;;;;;;;49.75;22.73;;;;;;;;;;5080911;28;20039;-61
2022/03/22 07:36:36;;;;;;;45.97;21.35;;;;;;;;;;5083940;28;20819;-61
2022/03/22 07:39:03;;;;;;;45.20;21.70;;;;;;;;;;5085553;28;20067;-60
2022/03/22 07:41:28;;;;;;;43.22;21.20;;;;;;;;;;5077046;28;20031;-60
2022/03/22 07:43:57;;;;;;;41.75;19.05;;;;;;;;;;5073108;28;20257;-60
2022/03/22 07:46:25;;;;;;;41.33;18.77;;;;;;;;;;5071084;28;20404;-60
2022/03/22 07:48:51;;;;;;;40.92;17.92;;;;;;;;;;5075481;28;20105;-60
2022/03/22 07:54:02;;;;;;;35.80;17.75;;;;;;;;;;5073505;28;20043;-60
2022/03/22 07:56:27;;;;;;;36.97;17.52;;;;;;;;;;5080340;28;20024;-61
2022/03/22 07:58:53;;;;;;;36.80;16.30;;;;;;;;;;5075912;28;20148;-60
2022/03/22 08:01:18;;;;;;;35.65;16.67;;;;;;;;;;5073700;28;20034;-61
2022/03/22 08:03:44;;;;;;;33.25;16.35;;;;;;;;;;5078541;28;20036;-61
2022/03/22 08:06:09;;;;;;;35.95;17.17;;;;;;;;;;5077208;28;20144;-61
2022/03/22 08:08:37;;;;;;;32.60;16.95;;;;;;;;;;5077965;28;20035;-60
2022/03/22 08:11:06;;;;;;;33.38;17.42;;;;;;;;;;5071243;28;20104;-60
2022/03/22 08:13:34;;;;;;;34.53;17.17;;;;;;;;;;5072786;28;20395;-61
2022/03/22 08:15:59;;;;;;;32.55;16.15;;;;;;;;;;5075360;28;20079;-60
2022/03/22 08:18:25;;;;;;;35.67;16.20;;;;;;;;;;5070230;28;20092;-60
2022/03/22 08:20:51;;;;;;;34.65;17.08;;;;;;;;;;5072752;28;20395;-60
2022/03/22 08:23:16;;;;;;;31.25;15.63;;;;;;;;;;5076625;28;20422;-61
2022/03/22 08:25:46;;;;;;;39.22;16.92;;;;;;;;;;5082041;28;20125;-60
2022/03/22 08:28:12;;;;;;;33.42;17.10;;;;;;;;;;5072886;28;20020;-60
2022/03/22 08:30:39;;;;;;;32.08;15.95;;;;;;;;;;5082633;28;20036;-60
2022/03/22 08:33:07;;;;;;;34.53;16.95;;;;;;;;;;5083701;28;20383;-61
2022/03/22 08:35:33;;;;;;;33.60;16.90;;;;;;;;;;5070513;28;20021;-61
2022/03/22 08:37:59;;;;;;;34.00;17.10;;;;;;;;;;5079044;28;20058;-60
2022/03/22 08:40:24;;;;;;;37.05;18.25;;;;;;;;;;5075739;28;20055;-60
2022/03/22 08:42:53;;;;;;;36.78;17.05;;;;;;;;;;5071667;28;20493;-60
2022/03/22 08:45:20;;;;;;;34.92;18.48;;;;;;;;;;5072747;28;20051;-61
2022/03/22 08:47:47;;;;;;;36.42;17.65;;;;;;;;;;5080758;28;20043;-60
2022/03/22 08:50:15;;;;;;;36.30;18.40;;;;;;;;;;5080391;28;20093;-61
2022/03/22 08:52:41;;;;;;;32.70;17.33;;;;;;;;;;5082257;28;20111;-60
2022/03/22 08:55:09;;;;;;;41.00;18.33;;;;;;;;;;5082059;28;20159;-60
2022/03/22 08:57:35;;;;;;;34.58;17.33;;;;;;;;;;5077342;28;20454;-60
2022/03/22 09:00:08;;;;;;;37.22;19.05;;;;;;;;;;5071408;28;20082;-61
2022/03/22 09:02:34;;;;;;;33.95;17.13;;;;;;;;;;5073095;28;20036;-59
2022/03/22 09:07:45;;;;;;;34.97;18.00;;;;;;;;;;5069775;28;20118;-61
2022/03/22 09:10:12;;;;;;;37.38;18.98;;;;;;;;;;5074649;28;20035;-61
2022/03/22 09:12:37;;;;;;;33.35;17.48;;;;;;;;;;5067947;28;20016;-61
2022/03/22 09:15:03;;;;;;;38.15;19.83;;;;;;;;;;5068462;28;20043;-61
2022/03/22 09:17:28;;;;;;;36.80;19.13;;;;;;;;;;5071533;28;20024;-61
2022/03/22 09:19:54;;;;;;;36.08;18.08;;;;;;;;;;5077049;28;20032;-60
2022/03/22 09:22:19;;;;;;;35.30;18.45;;;;;;;;;;5072341;28;20038;-60
2022/03/22 09:24:45;;;;;;;35.75;18.58;;;;;;;;;;5070231;28;20026;-60
2022/03/22 09:27:10;;;;;;;35.90;18.10;;;;;;;;;;5067747;28;20103;-60
2022/03/22 09:29:35;;;;;;;35.05;18.80;;;;;;;;;;5070456;28;20368;-62
2022/03/22 09:32:01;;;;;;;33.40;18.63;;;;;;;;;;5073837;28;20110;-60
2022/03/22 09:34:28;;;;;;;39.63;19.60;;;;;;;;;;5081075;28;20380;-61
2022/03/22 09:36:54;;;;;;;43.88;21.88;;;;;;;;;;5081520;28;20036;-60
2022/03/22 09:39:20;;;;;;;39.33;18.98;;;;;;;;;;5073110;28;20032;-61
2022/03/22 09:41:47;;;;;;;35.33;19.95;;;;;;;;;;5075105;28;20032;-60
2022/03/22 09:44:17;;;;;;;36.92;19.55;;;;;;;;;;5079210;28;20505;-60
2022/03/22 09:46:46;;;;;;;35.08;18.88;;;;;;;;;;5077601;28;20040;-60
2022/03/22 09:49:12;;;;;;;36.03;19.77;;;;;;;;;;5076641;28;20031;-61
2022/03/22 09:51:48;;;;;;;44.30;21.42;;;;;;;;;;5085161;28;20036;-62
2022/03/22 09:54:16;;;;;;;40.60;21.25;;;;;;;;;;5081981;28;20020;-61
2022/03/22 09:56:43;;;;;;;40.70;20.63;;;;;;;;;;5086305;28;20024;-62
2022/03/22 09:59:09;;;;;;;40.30;20.60;;;;;;;;;;5083624;28;20031;-61
2022/03/22 10:01:36;;;;;;;38.60;20.30;;;;;;;;;;5081743;28;20031;-61
2022/03/22 10:04:03;;;;;;;38.33;21.08;;;;;;;;;;5082134;28;20152;-62
2022/03/22 10:06:30;;;;;;;40.53;21.63;;;;;;;;;;5081787;28;20503;-61
2022/03/22 10:08:56;;;;;;;37.97;21.35;;;;;;;;;;5078759;28;20142;-62
2022/03/22 10:11:21;;;;;;;37.67;20.75;;;;;;;;;;5083346;28;20234;-61
2022/03/22 10:13:54;;;;;;;37.67;21.10;;;;;;;;;;5078843;28;20379;-61
2022/03/22 10:16:20;;;;;;;44.63;23.02;;;;;;;;;;5075875;28;20101;-61
2022/03/22 10:18:45;;;;;;;40.35;21.30;;;;;;;;;;5079216;28;20403;-61
2022/03/22 10:21:11;;;;;;;43.80;23.05;;;;;;;;;;5080214;28;20028;-62
2022/03/22 10:23:54;;;;;;;47.35;22.20;;;;;;;;;;5082005;28;20078;-61
2022/03/22 10:26:19;;;;;;;39.60;22.52;;;;;;;;;;5081349;28;20055;-61
2022/03/22 10:28:55;;;;;;;43.33;22.95;;;;;;;;;;5086269;28;20083;-61
2022/03/22 10:31:35;;;;;;;39.63;21.88;;;;;;;;;;5081887;28;20123;-61
2022/03/22 10:34:01;;;;;;;48.40;22.48;;;;;;;;;;5083098;28;20421;-61
2022/03/22 10:36:27;;;;;;;39.67;22.40;;;;;;;;;;5082286;28;20020;-61
2022/03/22 10:38:57;;;;;;;45.83;24.17;;;;;;;;;;5086111;28;20069;-61
2022/03/22 10:41:27;;;;;;;41.85;22.85;;;;;;;;;;5076667;28;20077;-61
2022/03/22 10:44:10;;;;;;;40.67;22.90;;;;;;;;;;5074411;28;20020;-61
2022/03/22 10:46:38;;;;;;;42.60;24.27;;;;;;;;;;5074934;28;20089;-61
2022/03/22 10:49:22;;;;;;;41.65;23.42;;;;;;;;;;5080796;28;20395;-61
2022/03/22 10:51:49;;;;;;;43.42;22.30;;;;;;;;;;5082762;28;20026;-61
2022/03/22 10:54:18;;;;;;;41.15;23.50;;;;;;;;;;5084064;28;20016;-62
2022/03/22 10:56:47;;;;;;;46.58;25.33;;;;;;;;;;5083800;28;20032;-62
2022/03/22 10:59:15;;;;;;;44.53;24.02;;;;;;;;;;5076573;28;20028;-61
2022/03/22 11:01:43;;;;;;;41.80;23.13;;;;;;;;;;5080897;28;20111;-62
2022/03/22 11:04:09;;;;;;;42.42;23.55;;;;;;;;;;5075282;28;20145;-62
2022/03/22 11:06:37;;;;;;;43.53;22.65;;;;;;;;;;5076580;28;20704;-62
2022/03/22 11:09:03;;;;;;;44.30;24.10;;;;;;;;;;5077348;28;20511;-62
2022/03/22 11:11:31;;;;;;;41.80;23.13;;;;;;;;;;5074873;28;20047;-62
2022/03/22 11:13:56;;;;;;;46.33;24.75;;;;;;;;;;5075943;28;20065;-61
2022/03/22 11:16:24;;;;;;;48.15;26.25;;;;;;;;;;5078748;28;20028;-61
2022/03/22 11:18:50;;;;;;;43.00;23.98;;;;;;;;;;5075163;28;20059;-62
2022/03/22 11:21:18;;;;;;;45.67;25.50;;;;;;;;;;5074099;28;20305;-62
2022/03/22 11:23:44;;;;;;;43.05;25.52;;;;;;;;;;5074975;28;20024;-62
2022/03/22 11:26:12;;;;;;;47.33;24.52;;;;;;;;;;5076992;28;20035;-62
2022/03/22 11:28:39;;;;;;;45.22;26.48;;;;;;;;;;5075284;28;20483;-62
2022/03/22 11:31:06;;;;;;;46.25;26.42;;;;;;;;;;5075325;28;20143;-62
2022/03/22 11:36:19;;;;;;;45.00;26.05;;;;;;;;;;5081201;28;20086;-62
2022/03/22 11:38:57;;;;;;;46.97;26.25;;;;;;;;;;5084568;28;20123;-62
2022/03/22 11:44:17;;;;;;;50.33;26.05;;;;;;;;;;5080182;28;20043;-62
2022/03/22 11:46:44;;;;;;;50.35;26.90;;;;;;;;;;5082492;28;20128;-63
2022/03/22 11:49:18;;;;;;;47.83;27.17;;;;;;;;;;5076614;28;20020;-63
2022/03/22 11:51:51;;;;;;;43.38;24.63;;;;;;;;;;5076537;28;20042;-61
2022/03/22 11:54:17;;;;;;;47.97;27.25;;;;;;;;;;5081329;28;20517;-63
2022/03/22 11:56:47;;;;;;;46.30;25.13;;;;;;;;;;5075568;28;20036;-63
2022/03/22 11:59:17;;;;;;;43.92;25.23;;;;;;;;;;5084266;28;20020;-62
2022/03/22 12:01:55;;;;;;;49.70;26.83;;;;;;;;;;5078587;28;20039;-62
2022/03/22 12:04:20;;;;;;;46.60;25.88;;;;;;;;;;5069812;28;20032;-61
2022/03/22 12:06:46;;;;;;;48.17;27.10;;;;;;;;;;5077405;28;20604;-62
2022/03/22 12:09:11;;;;;;;44.33;26.42;;;;;;;;;;5079722;28;20380;-62
2022/03/22 12:11:37;;;;;;;43.75;27.05;;;;;;;;;;5075489;28;20024;-62
2022/03/22 12:14:03;;;;;;;44.42;26.05;;;;;;;;;;5074879;28;20024;-62
2022/03/22 12:16:28;;;;;;;40.55;24.80;;;;;;;;;;5075042;28;20298;-62
2022/03/22 12:18:54;;;;;;;51.33;26.63;;;;;;;;;;5070279;28;20028;-63
2022/03/22 12:21:23;;;;;;;46.55;26.98;;;;;;;;;;5072542;28;20031;-62
2022/03/22 12:23:49;;;;;;;43.80;25.80;;;;;;;;;;5074548;28;20031;-63
2022/03/22 12:26:15;;;;;;;43.53;25.70;;;;;;;;;;5074179;28;20091;-60
2022/03/22 12:28:48;;;;;;;41.28;25.00;;;;;;;;;;5074727;28;20340;-62
2022/03/22 12:31:14;;;;;;;45.20;26.13;;;;;;;;;;5069588;28;20031;-63
2022/03/22 12:33:39;;;;;;;42.50;24.65;;;;;;;;;;5078852;28;20024;-61
2022/03/22 12:36:05;;;;;;;46.53;26.85;;;;;;;;;;5082681;28;20023;-63
2022/03/22 12:38:30;;;;;;;40.53;25.40;;;;;;;;;;5076757;28;20039;-63
2022/03/22 12:40:56;;;;;;;46.33;25.20;;;;;;;;;;5076733;28;20017;-63
2022/03/22 12:43:22;;;;;;;46.25;26.88;;;;;;;;;;5073609;28;20136;-63
2022/03/22 12:45:49;;;;;;;43.70;25.23;;;;;;;;;;5074843;28;20101;-63
2022/03/22 12:48:23;;;;;;;92.90;40.92;;;;;;;;;;5073620;28;20044;-62
2022/03/22 12:50:50;;;;;;;52.67;28.45;;;;;;;;;;5072144;28;20077;-63
2022/03/22 12:53:15;;;;;;;41.20;25.38;;;;;;;;;;5074323;28;20561;-64
2022/03/22 12:55:42;;;;;;;42.75;26.27;;;;;;;;;;5075682;28;20057;-63
2022/03/22 12:58:08;;;;;;;40.88;25.05;;;;;;;;;;5074990;28;20024;-62
2022/03/22 13:00:39;;;;;;;45.28;26.45;;;;;;;;;;5071298;28;20395;-62
2022/03/22 13:03:14;;;;;;;43.20;24.80;;;;;;;;;;5069879;28;20032;-63
2022/03/22 13:05:46;;;;;;;41.63;24.83;;;;;;;;;;5076172;28;20023;-62
2022/03/22 13:08:23;;;;;;;40.25;25.00;;;;;;;;;;5073738;28;20479;-63
2022/03/22 13:16:27;;;;;;;40.65;25.20;;;;;;;;;;5071714;28;20081;-63
2022/03/22 13:18:57;;;;;;;42.78;24.15;;;;;;;;;;5069149;28;20109;-63
2022/03/22 13:21:24;;;;;;;36.60;24.45;;;;;;;;;;5070776;28;20024;-65
2022/03/22 13:24:04;;;;;;;41.20;24.45;;;;;;;;;;5071075;28;20028;-64
2022/03/22 13:26:32;;;;;;;38.80;24.08;;;;;;;;;;5078550;28;20016;-65
2022/03/22 13:28:58;;;;;;;37.20;23.75;;;;;;;;;;5074713;28;20103;-63
2022/03/22 13:31:29;;;;;;;38.95;25.50;;;;;;;;;;5076984;28;20536;-65
2022/03/22 13:33:57;;;;;;;41.03;24.02;;;;;;;;;;5073966;28;20086;-63
2022/03/22 13:36:23;;;;;;;44.25;25.85;;;;;;;;;;5075415;28;20103;-64
2022/03/22 13:38:51;;;;;;;31.17;20.30;;;;;;;;;;5076202;28;20038;-64
2022/03/22 13:41:27;;;;;;;36.25;19.35;;;;;;;;;;5076604;28;20024;-65
2022/03/22 13:43:53;;;;;;;31.95;20.52;;;;;;;;;;5077267;28;20025;-64
2022/03/22 13:46:20;;;;;;;33.28;20.63;;;;;;;;;;5076432;28;20677;-65
2022/03/22 13:48:49;;;;;;;32.40;19.55;;;;;;;;;;5081553;28;20085;-65
2022/03/22 13:51:23;;;;;;;31.95;21.05;;;;;;;;;;5079572;28;20360;-65
2022/03/22 13:53:49;;;;;;;37.28;22.88;;;;;;;;;;5073042;28;20041;-64
2022/03/22 13:56:21;;;;;;;37.95;21.00;;;;;;;;;;5078894;28;20039;-64
2022/03/22 13:58:47;;;;;;;33.65;21.70;;;;;;;;;;5080081;28;20040;-64
2022/03/22 14:01:13;;;;;;;36.92;23.08;;;;;;;;;;5079573;28;20399;-64
2022/03/22 14:03:43;;;;;;;39.63;22.05;;;;;;;;;;5077348;28;20036;-64
2022/03/22 14:06:09;;;;;;;37.50;23.90;;;;;;;;;;5074281;28;20024;-64
2022/03/22 14:08:36;;;;;;;38.00;23.63;;;;;;;;;;5081799;28;20480;-64
2022/03/22 14:11:02;;;;;;;37.28;24.05;;;;;;;;;;5073384;28;20399;-64
2022/03/22 14:13:31;;;;;;;38.20;23.98;;;;;;;;;;5076813;28;20115;-62
2022/03/22 14:15:57;;;;;;;38.38;24.35;;;;;;;;;;5077210;28;20028;-64
2022/03/22 14:18:23;;;;;;;41.67;23.02;;;;;;;;;;5078186;28;20028;-63
2022/03/22 14:20:50;;;;;;;37.72;23.13;;;;;;;;;;5082066;28;20556;-64
2022/03/22 14:23:16;;;;;;;36.97;22.15;;;;;;;;;;5073983;28;20097;-63
2022/03/22 14:25:43;;;;;;;37.08;22.30;;;;;;;;;;5073755;28;20036;-64
2022/03/22 14:28:09;;;;;;;36.97;22.02;;;;;;;;;;5076265;28;20021;-63
2022/03/22 14:30:37;;;;;;;35.17;21.75;;;;;;;;;;5080013;28;20145;-63
2022/03/22 14:33:18;;;;;;;39.63;21.67;;;;;;;;;;5080331;28;20020;-64
2022/03/22 14:35:53;;;;;;;34.25;21.23;;;;;;;;;;5078723;28;20050;-63
2022/03/22 14:38:28;;;;;;;33.08;21.60;;;;;;;;;;5077057;28;20033;-64
2022/03/22 14:41:02;;;;;;;35.35;20.23;;;;;;;;;;5078706;28;20442;-64
2022/03/22 14:43:29;;;;;;;31.73;19.25;;;;;;;;;;5077935;28;20029;-64
2022/03/22 14:45:56;;;;;;;28.38;19.13;;;;;;;;;;5079236;28;20484;-64
2022/03/22 14:48:26;;;;;;;29.35;19.40;;;;;;;;;;5077919;28;20111;-64
2022/03/22 14:50:53;;;;;;;43.72;24.55;;;;;;;;;;5083280;28;20027;-64
2022/03/22 14:58:53;;;;;;;33.67;22.42;;;;;;;;;;5081108;28;20093;-63
2022/03/22 15:01:19;;;;;;;35.58;22.15;;;;;;;;;;5079823;28;20051;-62
2022/03/22 15:03:47;;;;;;;27.08;17.83;;;;;;;;;;5077589;28;20432;-58